createdAt,value
2022-11-24T00:01:18.002Z,100375.69
2022-11-24T00:03:46.317Z,100384.97
2022-11-24T00:06:15.547Z,100384.47
2022-11-24T00:08:43.705Z,100379.59
2022-11-24T00:11:13.310Z,100376.97
2022-11-24T00:13:40.167Z,100381.34
2022-11-24T00:16:30.652Z,100374.63
2022-11-24T00:18:58.518Z,100379.03
2022-11-24T00:21:26.129Z,100385.22
2022-11-24T00:23:52.934Z,100380.84
2022-11-24T00:26:22.158Z,100387.78
2022-11-24T00:28:49.792Z,100390.88
2022-11-24T00:31:26.127Z,100382.09
2022-11-24T00:33:54.994Z,100395.03
2022-11-24T00:36:23.257Z,100381.88
2022-11-24T00:38:54.824Z,100387.56
2022-11-24T00:41:21.997Z,100390.16
2022-11-24T00:43:48.506Z,100381.88
2022-11-24T00:46:15.123Z,100387.59
2022-11-24T00:48:41.756Z,100396.38
2022-11-24T00:51:11.029Z,100396.88
2022-11-24T00:53:37.742Z,100389.63
2022-11-24T00:56:05.221Z,100399.69
2022-11-24T00:58:33.824Z,100396.88
2022-11-24T01:01:06.321Z,100400.47
2022-11-24T01:03:33.330Z,100401.53
2022-11-24T01:06:07.620Z,100395.81
2022-11-24T01:08:34.597Z,100402.56
2022-11-24T01:11:14.666Z,100402.81
2022-11-24T01:13:41.958Z,100401.00
2022-11-24T01:16:30.131Z,100393.50
2022-11-24T01:18:56.879Z,100392.22
2022-11-24T01:21:23.858Z,100390.41
2022-11-24T01:23:51.620Z,100397.91
2022-11-24T01:26:20.282Z,100397.13
2022-11-24T01:28:47.950Z,100394.78
2022-11-24T01:31:15.677Z,100395.31
2022-11-24T01:33:42.410Z,100400.75
2022-11-24T01:36:09.032Z,100390.66
2022-11-24T01:38:35.594Z,100402.81
2022-11-24T01:41:03.982Z,100394.81
2022-11-24T01:43:30.550Z,100398.69
2022-11-24T01:45:57.915Z,100408.22
2022-11-24T01:48:39.051Z,100396.09
2022-11-24T01:51:15.482Z,100402.81
2022-11-24T01:53:44.764Z,100403.84
2022-11-24T01:56:13.200Z,100407.19
2022-11-24T01:58:42.488Z,100398.44
2022-11-24T02:01:09.104Z,100408.22
2022-11-24T02:03:37.888Z,100400.47
2022-11-24T02:06:19.673Z,100407.19
2022-11-24T02:08:58.578Z,100406.41
2022-11-24T02:11:27.269Z,100399.72
2022-11-24T02:13:54.020Z,100401.53
2022-11-24T02:16:20.548Z,100401.00
2022-11-24T02:19:14.030Z,100405.91
2022-11-24T02:21:43.414Z,100402.81
2022-11-24T02:24:27.170Z,100406.41
2022-11-24T02:26:54.891Z,100410.53
2022-11-24T02:29:21.471Z,100414.94
2022-11-24T02:31:51.632Z,100405.38
2022-11-24T02:34:18.294Z,100406.16
2022-11-24T02:36:44.802Z,100403.84
2022-11-24T02:39:13.802Z,100415.97
2022-11-24T02:41:43.580Z,100414.16
2022-11-24T02:44:10.248Z,100412.13
2022-11-24T02:46:36.871Z,100417.00
2022-11-24T02:49:03.460Z,100411.06
2022-11-24T02:51:30.046Z,100407.72
2022-11-24T02:53:56.561Z,100417.00
2022-11-24T02:56:23.001Z,100401.25
2022-11-24T02:58:49.735Z,100396.63
2022-11-24T03:01:16.294Z,100401.78
2022-11-24T03:03:43.169Z,100398.41
2022-11-24T03:06:09.709Z,100395.59
2022-11-24T03:08:36.297Z,100391.97
2022-11-24T03:11:07.301Z,100382.41
2022-11-24T03:13:33.786Z,100387.59
2022-11-24T03:16:00.399Z,100393.00
2022-11-24T03:18:26.993Z,100384.47
2022-11-24T03:20:53.465Z,100375.19
2022-11-24T03:23:19.964Z,100384.50
2022-11-24T03:25:46.522Z,100388.88
2022-11-24T03:28:12.988Z,100388.88
2022-11-24T03:30:39.506Z,100396.34
2022-11-24T03:33:07.244Z,100395.31
2022-11-24T03:35:34.380Z,100397.91
2022-11-24T03:38:03.179Z,100399.44
2022-11-24T03:40:30.754Z,100402.81
2022-11-24T03:42:57.258Z,100395.84
2022-11-24T03:45:45.842Z,100394.31
2022-11-24T03:48:10.284Z,100400.22
2022-11-24T03:50:39.244Z,100401.00
2022-11-24T03:53:10.441Z,100409.50
2022-11-24T03:55:36.926Z,100416.25
2022-11-24T03:58:03.503Z,100421.41
2022-11-24T04:00:30.065Z,100427.09
2022-11-24T04:02:56.607Z,100436.91
2022-11-24T04:05:25.583Z,100437.16
2022-11-24T04:07:56.266Z,100439.44
2022-11-24T04:10:25.197Z,100444.63
2022-11-24T04:12:51.739Z,100453.91
2022-11-24T04:15:19.435Z,100454.16
2022-11-24T04:17:49.354Z,100457.03
2022-11-24T04:20:16.721Z,100460.38
2022-11-24T04:22:43.562Z,100464.53
2022-11-24T04:25:10.747Z,100463.22
2022-11-24T04:27:41.343Z,100474.31
2022-11-24T04:30:08.266Z,100468.63
2022-11-24T04:32:41.884Z,100479.75
2022-11-24T04:35:08.651Z,100482.31
2022-11-24T04:37:35.193Z,100478.69
2022-11-24T04:40:01.970Z,100478.63
2022-11-24T04:42:28.508Z,100477.63
2022-11-24T04:44:55.630Z,100470.38
2022-11-24T04:47:26.212Z,100459.59
2022-11-24T04:49:53.484Z,100458.75
2022-11-24T04:52:23.392Z,100447.44
2022-11-24T04:54:50.142Z,100459.03
2022-11-24T04:57:25.119Z,100457.75
2022-11-24T04:59:53.136Z,100462.19
2022-11-24T05:02:20.066Z,100460.63
2022-11-24T05:04:46.638Z,100459.38
2022-11-24T05:07:19.194Z,100471.75
2022-11-24T05:10:05.923Z,100467.09
2022-11-24T05:12:32.454Z,100481.81
2022-11-24T05:15:00.125Z,100484.91
2022-11-24T05:17:31.335Z,100489.56
2022-11-24T05:19:58.023Z,100480.53
2022-11-24T05:22:24.669Z,100476.66
2022-11-24T05:24:51.383Z,100482.56
2022-11-24T05:27:17.848Z,100481.03
2022-11-24T05:29:44.516Z,100492.13
2022-11-24T05:32:11.469Z,100491.09
2022-11-24T05:34:38.037Z,100492.91
2022-11-24T05:37:05.003Z,100497.06
2022-11-24T05:39:38.738Z,100500.63
2022-11-24T05:42:27.995Z,100496.25
2022-11-24T05:44:54.667Z,100494.97
2022-11-24T05:47:21.748Z,100481.31
2022-11-24T05:49:49.602Z,100485.44
2022-11-24T05:52:16.725Z,100483.63
2022-11-24T05:54:43.214Z,100483.81
2022-11-24T05:57:09.985Z,100480.25
2022-11-24T05:59:36.500Z,100478.97
2022-11-24T06:02:03.073Z,100480.53
2022-11-24T06:04:29.612Z,100483.63
2022-11-24T06:06:56.097Z,100484.13
2022-11-24T06:09:22.544Z,100484.91
2022-11-24T06:11:49.400Z,100484.13
2022-11-24T06:14:15.891Z,100495.25
2022-11-24T06:16:44.360Z,100498.88
2022-11-24T06:19:11.479Z,100506.09
2022-11-24T06:21:38.445Z,100509.19
2022-11-24T06:24:05.550Z,100508.41
2022-11-24T06:26:32.474Z,100523.63
2022-11-24T06:28:58.932Z,100519.75
2022-11-24T06:31:25.443Z,100516.41
2022-11-24T06:33:52.036Z,100524.91
2022-11-24T06:36:18.509Z,100528.25
2022-11-24T06:38:45.167Z,100527.50
2022-11-24T06:41:14.055Z,100525.94
2022-11-24T06:43:40.737Z,100533.19
2022-11-24T06:46:07.429Z,100533.69
2022-11-24T06:48:33.993Z,100530.09
2022-11-24T06:51:01.578Z,100535.72
2022-11-24T06:53:31.890Z,100534.44
2022-11-24T06:56:02.202Z,100534.72
2022-11-24T06:58:28.737Z,100531.34
2022-11-24T07:00:56.512Z,100538.56
2022-11-24T07:03:23.694Z,100537.81
2022-11-24T07:06:00.241Z,100549.66
2022-11-24T07:08:26.744Z,100549.91
2022-11-24T07:10:53.194Z,100545.56
2022-11-24T07:13:20.237Z,100559.22
2022-11-24T07:15:47.150Z,100559.47
2022-11-24T07:18:16.144Z,100562.25
2022-11-24T07:20:43.707Z,100570.53
2022-11-24T07:23:10.248Z,100561.22
2022-11-24T07:25:36.777Z,100562.28
2022-11-24T07:28:03.369Z,100567.69
2022-11-24T07:30:29.876Z,100573.88
2022-11-24T07:33:01.849Z,100570.28
2022-11-24T07:35:28.957Z,100574.69
2022-11-24T07:37:56.507Z,100572.91
2022-11-24T07:40:23.768Z,100573.16
2022-11-24T07:42:52.666Z,100584.78
2022-11-24T07:45:19.156Z,100574.97
2022-11-24T07:47:45.734Z,100578.56
2022-11-24T07:50:12.602Z,100576.28
2022-11-24T07:52:39.129Z,100571.63
2022-11-24T07:55:06.223Z,100573.19
2022-11-24T07:57:32.817Z,100566.22
2022-11-24T07:59:59.363Z,100566.78
2022-11-24T08:02:25.830Z,100554.09
2022-11-24T08:04:52.357Z,100554.88
2022-11-24T08:07:19.486Z,100562.91
2022-11-24T08:09:45.947Z,100567.81
2022-11-24T08:12:12.449Z,100567.25
2022-11-24T08:14:38.916Z,100576.81
2022-11-24T08:17:05.437Z,100576.34
2022-11-24T08:19:32.390Z,100581.03
2022-11-24T08:21:58.891Z,100590.56
2022-11-24T08:24:25.380Z,100585.63
2022-11-24T08:26:51.791Z,100589.25
2022-11-24T08:29:18.282Z,100589.25
2022-11-24T08:31:44.773Z,100584.06
2022-11-24T08:34:11.313Z,100577.63
2022-11-24T08:36:38.929Z,100579.69
2022-11-24T08:39:05.613Z,100589.22
2022-11-24T08:41:32.126Z,100577.34
2022-11-24T08:43:58.587Z,100573.97
2022-11-24T08:46:25.142Z,100570.16
2022-11-24T08:48:52.751Z,100582.00
2022-11-24T08:51:21.959Z,100581.50
2022-11-24T08:53:48.429Z,100586.44
2022-11-24T08:56:15.185Z,100587.22
2022-11-24T08:58:43.271Z,100605.06
2022-11-24T09:01:16.497Z,100598.84
2022-11-24T09:03:50.376Z,100588.78
2022-11-24T09:06:23.142Z,100584.13
2022-11-24T09:08:49.831Z,100591.13
2022-11-24T09:11:17.182Z,100587.22
2022-11-24T09:13:43.877Z,100592.13
2022-11-24T09:16:19.815Z,100602.97
2022-11-24T09:18:46.981Z,100599.84
2022-11-24T09:21:23.540Z,100603.78
2022-11-24T09:23:51.336Z,100602.22
2022-11-24T09:26:18.966Z,100601.19
2022-11-24T09:28:46.076Z,100604.81
2022-11-24T09:31:15.240Z,100606.38
2022-11-24T09:33:42.382Z,100605.59
2022-11-24T09:36:10.391Z,100605.59
2022-11-24T09:38:36.943Z,100608.38
2022-11-24T09:41:18.315Z,100601.13
2022-11-24T09:44:22.274Z,100606.84
2022-11-24T09:47:26.265Z,100615.34
2022-11-24T09:50:14.327Z,100617.16
2022-11-24T09:52:42.973Z,100607.88
2022-11-24T09:55:23.351Z,100620.53
2022-11-24T09:57:56.452Z,100613.81
2022-11-24T10:00:23.034Z,100616.41
2022-11-24T10:02:50.060Z,100617.19
2022-11-24T10:05:16.878Z,100627.28
2022-11-24T10:08:14.609Z,100620.03
2022-11-24T10:10:56.806Z,100612.03
2022-11-24T10:13:50.440Z,100623.66
2022-11-24T10:16:39.006Z,100608.66
2022-11-24T10:19:13.097Z,100606.38
2022-11-24T10:21:52.227Z,100604.28
2022-11-24T10:24:37.509Z,100606.63
2022-11-24T10:27:14.190Z,100601.72
2022-11-24T10:29:41.504Z,100605.88
2022-11-24T10:32:15.089Z,100611.00
2022-11-24T10:34:47.010Z,100608.69
2022-11-24T10:37:30.609Z,100607.66
2022-11-24T10:40:05.869Z,100606.63
2022-11-24T10:42:37.596Z,100613.09
2022-11-24T10:45:14.577Z,100615.41
2022-11-24T10:47:44.780Z,100607.91
2022-11-24T10:50:19.357Z,100614.84
2022-11-24T10:53:17.098Z,100613.53
2022-11-24T10:55:58.774Z,100623.59
2022-11-24T10:58:27.550Z,100617.66
2022-11-24T11:01:01.372Z,100610.44
2022-11-24T11:03:32.218Z,100610.69
2022-11-24T11:06:13.658Z,100618.97
2022-11-24T11:08:40.332Z,100616.44
2022-11-24T11:11:29.306Z,100603.50
2022-11-24T11:14:03.345Z,100602.72
2022-11-24T11:16:42.064Z,100606.13
2022-11-24T11:20:00.246Z,100592.41
2022-11-24T11:22:31.645Z,100599.13
2022-11-24T11:25:04.961Z,100602.72
2022-11-24T11:27:33.074Z,100597.31
2022-11-24T11:36:10.933Z,100609.19
2022-11-24T11:38:38.821Z,100616.44
2022-11-24T11:41:06.015Z,100624.94
2022-11-24T11:43:35.147Z,100611.53
2022-11-24T11:46:19.294Z,100605.84
2022-11-24T11:48:46.903Z,100600.91
2022-11-24T11:51:35.105Z,100602.75
2022-11-24T11:54:32.977Z,100609.22
2022-11-24T11:57:10.824Z,100606.09
2022-11-24T11:59:47.161Z,100620.28
2022-11-24T12:02:59.699Z,100612.31
2022-11-24T12:05:41.531Z,100617.50
2022-11-24T12:08:26.745Z,100617.22
2022-11-24T12:11:09.195Z,100621.88
2022-11-24T12:13:47.546Z,100630.41
2022-11-24T12:16:32.412Z,100627.56
2022-11-24T12:19:33.715Z,100632.22
2022-11-24T12:22:09.674Z,100625.25
2022-11-24T12:24:45.162Z,100634.53
2022-11-24T12:27:30.560Z,100629.59
2022-11-24T12:30:04.002Z,100629.88
2022-11-24T12:33:12.004Z,100627.81
2022-11-24T12:35:46.586Z,100629.66
2022-11-24T12:38:22.864Z,100628.31
2022-11-24T12:41:25.395Z,100626.78
2022-11-24T12:43:55.096Z,100624.44
2022-11-24T12:47:04.140Z,100626.25
2022-11-24T12:49:55.475Z,100610.25
2022-11-24T12:52:38.927Z,100614.38
2022-11-24T12:55:06.117Z,100609.97
2022-11-24T12:57:48.052Z,100601.47
2022-11-24T13:00:25.100Z,100621.63
2022-11-24T13:03:06.891Z,100620.03
2022-11-24T13:05:51.620Z,100624.41
2022-11-24T13:08:18.518Z,100632.66
2022-11-24T13:11:00.388Z,100639.91
2022-11-24T13:13:35.104Z,100638.34
2022-11-24T13:16:35.130Z,100642.22
2022-11-24T13:19:01.321Z,100647.94
2022-11-24T13:21:27.768Z,100650.28
2022-11-24T13:24:01.337Z,100649.47
2022-11-24T13:26:44.032Z,100652.06
2022-11-24T13:29:33.940Z,100650.28
2022-11-24T13:32:07.172Z,100647.69
2022-11-24T13:34:39.712Z,100649.47
2022-11-24T13:37:34.348Z,100654.91
2022-11-24T13:40:11.534Z,100656.72
2022-11-24T13:42:56.574Z,100654.13
2022-11-24T13:45:49.595Z,100660.84
2022-11-24T13:48:19.205Z,100660.88
2022-11-24T13:50:53.074Z,100668.63
2022-11-24T13:53:35.086Z,100670.66
2022-11-24T13:56:13.897Z,100666.25
2022-11-24T13:58:42.640Z,100674.75
2022-11-24T14:01:09.013Z,100668.03
2022-11-24T14:06:52.719Z,100676.59
2022-11-24T14:09:32.021Z,100677.91
2022-11-24T14:12:06.560Z,100674.84
2022-11-24T14:14:33.336Z,100671.47
2022-11-24T14:17:07.962Z,100677.13
2022-11-24T14:19:34.461Z,100676.41
2022-11-24T14:22:00.926Z,100676.69
2022-11-24T14:24:35.427Z,100681.56
2022-11-24T14:27:04.952Z,100695.56
2022-11-24T14:29:33.569Z,100685.75
2022-11-24T14:32:01.932Z,100695.28
2022-11-24T14:34:30.008Z,100683.94
2022-11-24T14:36:57.703Z,100692.97
2022-11-24T14:39:25.924Z,100695.78
2022-11-24T14:42:03.892Z,100692.97
2022-11-24T14:44:32.336Z,100702.53
2022-11-24T14:47:07.234Z,100698.44
2022-11-24T14:49:34.934Z,100694.78
2022-11-24T14:52:11.739Z,100710.00
2022-11-24T14:54:46.678Z,100705.66
2022-11-24T14:57:34.132Z,100712.91
2022-11-24T15:00:20.202Z,100717.06
2022-11-24T15:02:53.492Z,100716.25
2022-11-24T15:05:22.082Z,100722.47
2022-11-24T15:08:01.376Z,100721.41
2022-11-24T15:10:35.440Z,100707.41
2022-11-24T15:13:04.525Z,100718.53
2022-11-24T15:15:36.310Z,100720.03
2022-11-24T15:18:05.352Z,100721.81
2022-11-24T15:20:35.320Z,100710.19
2022-11-24T15:23:20.680Z,100716.19
2022-11-24T15:25:47.762Z,100721.31
2022-11-24T15:28:14.248Z,100728.03
2022-11-24T15:30:40.893Z,100732.00
2022-11-24T15:33:16.297Z,100725.28
2022-11-24T15:35:43.551Z,100734.88
2022-11-24T15:38:12.621Z,100726.88
2022-11-24T15:40:40.291Z,100726.88
2022-11-24T15:43:39.051Z,100739.00
2022-11-24T15:46:06.538Z,100741.09
2022-11-24T15:48:33.319Z,100747.06
2022-11-24T15:51:02.138Z,100744.19
2022-11-24T15:53:39.096Z,100739.03
2022-11-24T15:56:08.432Z,100737.47
2022-11-24T15:58:34.969Z,100740.81
2022-11-24T16:01:01.699Z,100739.78
2022-11-24T16:06:23.640Z,100738.47
2022-11-24T16:08:50.998Z,100737.03
2022-11-24T16:11:17.443Z,100730.69
2022-11-24T16:13:48.564Z,100743.06
2022-11-24T16:16:19.254Z,100734.00
2022-11-24T16:18:45.868Z,100743.38
2022-11-24T16:21:12.346Z,100744.16
2022-11-24T16:23:38.894Z,100745.44
2022-11-24T16:26:05.762Z,100752.66
2022-11-24T16:28:32.560Z,100741.28
2022-11-24T16:30:59.035Z,100746.91
2022-11-24T16:33:25.531Z,100754.88
2022-11-24T16:35:53.446Z,100747.66
2022-11-24T16:38:20.173Z,100752.88
2022-11-24T16:40:59.115Z,100764.50
2022-11-24T16:43:25.669Z,100752.13
2022-11-24T16:46:14.268Z,100754.50
2022-11-24T16:48:40.871Z,100750.38
2022-11-24T16:51:08.843Z,100748.84
2022-11-24T16:53:35.437Z,100750.13
2022-11-24T16:56:02.244Z,100757.56
2022-11-24T16:58:28.756Z,100750.63
2022-11-24T17:00:55.241Z,100748.84
2022-11-24T17:03:21.865Z,100749.63
2022-11-24T17:05:58.897Z,100753.50
2022-11-24T17:08:25.840Z,100754.28
2022-11-24T17:10:52.614Z,100750.34
2022-11-24T17:13:19.076Z,100755.44
2022-11-24T17:15:50.997Z,100754.41
2022-11-24T17:18:24.954Z,100750.75
2022-11-24T17:20:54.597Z,100761.16
2022-11-24T17:23:21.023Z,100758.66
2022-11-24T17:25:48.928Z,100758.91
2022-11-24T17:28:17.179Z,100758.16
2022-11-24T17:30:46.175Z,100765.88
2022-11-24T17:33:12.811Z,100763.72
2022-11-24T17:35:39.605Z,100763.69
2022-11-24T17:38:11.974Z,100764.66
2022-11-24T17:40:47.396Z,100765.97
2022-11-24T17:43:13.885Z,100765.56
2022-11-24T17:45:57.583Z,100776.91
2022-11-24T17:48:24.225Z,100775.28
2022-11-24T17:51:16.958Z,100784.91
2022-11-24T17:53:46.006Z,100799.19
2022-11-24T17:56:15.299Z,100793.22
2022-11-24T17:58:43.355Z,100801.56
2022-11-24T18:01:11.518Z,100794.88
2022-11-24T18:03:41.933Z,100790.97
2022-11-24T18:06:14.017Z,100807.44
2022-11-24T18:08:42.110Z,100808.66
2022-11-24T18:11:11.089Z,100811.31
2022-11-24T18:16:28.860Z,100817.25
2022-11-24T18:19:07.940Z,100819.13
2022-11-24T18:21:36.014Z,100825.34
2022-11-24T18:24:03.296Z,100822.00
2022-11-24T18:26:31.496Z,100825.59
2022-11-24T18:34:52.949Z,100831.25
2022-11-24T18:37:25.084Z,100836.44
2022-11-24T18:40:09.799Z,100836.22
2022-11-24T18:42:42.958Z,100836.66
2022-11-24T18:45:26.393Z,100836.69
2022-11-24T18:49:00.208Z,100838.69
2022-11-24T18:51:30.010Z,100832.47
2022-11-24T18:54:00.132Z,100831.78
2022-11-24T18:56:29.291Z,100840.09
2022-11-24T18:58:56.625Z,100833.88
2022-11-24T19:01:25.606Z,100832.84
2022-11-24T19:03:54.866Z,100841.38
2022-11-24T19:06:31.887Z,100839.41
2022-11-24T19:09:02.090Z,100835.84
2022-11-24T19:11:35.482Z,100831.78
2022-11-24T19:14:03.772Z,100837.31
2022-11-24T19:16:30.815Z,100836.50
2022-11-24T19:19:02.743Z,100829.50
2022-11-24T19:21:35.392Z,100835.53
2022-11-24T19:24:05.458Z,100833.59
2022-11-24T19:26:32.552Z,100837.41
2022-11-24T19:28:59.114Z,100845.47
2022-11-24T19:31:25.656Z,100841.88
2022-11-24T19:33:54.685Z,100841.56
2022-11-24T19:36:23.321Z,100846.78
2022-11-24T19:38:52.594Z,100844.69
2022-11-24T19:41:22.782Z,100849.16
2022-11-24T19:43:49.528Z,100850.47
2022-11-24T19:46:19.452Z,100854.34
2022-11-24T19:48:50.038Z,100853.09
2022-11-24T19:51:18.712Z,100855.66
2022-11-24T19:53:45.452Z,100867.50
2022-11-24T19:56:14.195Z,100856.41
2022-11-24T19:58:40.944Z,100853.84
2022-11-24T20:01:27.737Z,100855.41
2022-11-24T20:03:59.226Z,100853.00
2022-11-24T20:06:28.075Z,100850.41
2022-11-24T20:08:54.585Z,100861.41
2022-11-24T20:11:24.092Z,100864.50
2022-11-24T20:13:54.145Z,100865.47
2022-11-24T20:16:26.321Z,100866.75
2022-11-24T20:18:54.339Z,100872.16
2022-11-24T20:21:33.089Z,100862.75
2022-11-24T20:24:21.801Z,100871.94
2022-11-24T20:26:54.504Z,100864.50
2022-11-24T20:29:21.477Z,100863.88
2022-11-24T20:31:55.306Z,100858.91
2022-11-24T20:34:22.958Z,100868.84
2022-11-24T20:36:49.491Z,100867.34
2022-11-24T20:39:18.529Z,100867.88
2022-11-24T20:41:45.095Z,100867.16
2022-11-24T20:44:16.483Z,100874.22
2022-11-24T20:46:44.191Z,100879.91
2022-11-24T20:49:14.585Z,100881.25
2022-11-24T20:51:51.418Z,100887.78
2022-11-24T20:54:18.289Z,100901.09
2022-11-24T20:56:46.349Z,100901.75
2022-11-24T20:59:16.547Z,100907.41
2022-11-24T21:01:45.365Z,100908.69
2022-11-24T21:04:16.247Z,100905.38
2022-11-24T21:06:42.863Z,100915.69
2022-11-24T21:09:09.836Z,100915.44
2022-11-24T21:11:36.931Z,100921.94
2022-11-24T21:14:04.107Z,100918.41
2022-11-24T21:16:33.004Z,100911.63
2022-11-24T21:19:01.737Z,100916.75
2022-11-24T21:21:35.745Z,100919.09
2022-11-24T21:24:12.939Z,100918.72
2022-11-24T21:26:40.286Z,100917.84
2022-11-24T21:29:08.565Z,100919.34
2022-11-24T21:31:39.122Z,100920.63
2022-11-24T21:34:06.685Z,100914.78
2022-11-24T21:36:34.925Z,100905.69
2022-11-24T21:39:02.472Z,100915.03
2022-11-24T21:41:32.309Z,100918.38
2022-11-24T21:43:58.892Z,100912.47
2022-11-24T21:46:25.397Z,100916.88
2022-11-24T21:48:51.899Z,100920.84
2022-11-24T21:51:20.240Z,100908.16
2022-11-24T21:53:47.582Z,100915.47
2022-11-24T21:56:16.952Z,100915.25
2022-11-24T21:59:06.197Z,100907.50
2022-11-24T22:01:33.868Z,100907.31
2022-11-24T22:04:00.341Z,100922.56
2022-11-24T22:06:26.816Z,100916.84
2022-11-24T22:08:53.345Z,100925.91
2022-11-24T22:11:24.273Z,100922.31
2022-11-24T22:13:51.431Z,100922.06
2022-11-24T22:19:05.252Z,100922.75
2022-11-24T22:21:41.233Z,100926.69
2022-11-24T22:24:24.357Z,100927.19
2022-11-24T22:26:54.982Z,100924.34
2022-11-24T22:29:23.080Z,100921.72
2022-11-24T22:31:49.726Z,100930.06
2022-11-24T22:34:18.414Z,100920.25
2022-11-24T22:36:44.825Z,100927.78
2022-11-24T22:39:12.137Z,100920.19
2022-11-24T22:41:39.006Z,100913.16
2022-11-24T22:44:08.457Z,100921.44
2022-11-24T22:46:35.359Z,100920.66
2022-11-24T22:49:01.925Z,100919.41
2022-11-24T22:51:31.309Z,100923.28
2022-11-24T22:54:06.981Z,100920.47
2022-11-24T22:56:35.636Z,100925.91
2022-11-24T22:59:03.347Z,100923.06
2022-11-24T23:01:36.593Z,100925.09
2022-11-24T23:04:04.159Z,100923.50
2022-11-24T23:06:34.381Z,100919.94
2022-11-24T23:09:03.545Z,100927.97
2022-11-24T23:11:37.409Z,100921.28
2022-11-24T23:14:06.584Z,100924.63
2022-11-24T23:16:33.127Z,100921.81
2022-11-24T23:19:02.168Z,100918.69
2022-11-24T23:21:33.354Z,100929.53
2022-11-24T23:24:02.112Z,100930.31
2022-11-24T23:26:36.846Z,100926.75
2022-11-24T23:29:04.668Z,100931.94
2022-11-24T23:31:31.739Z,100927.53
2022-11-24T23:34:00.278Z,100927.50
2022-11-24T23:36:27.608Z,100940.69
2022-11-24T23:38:54.419Z,100932.38
2022-11-24T23:41:24.678Z,100934.75
2022-11-24T23:43:52.372Z,100936.31
2022-11-24T23:46:22.843Z,100938.34
2022-11-24T23:48:51.320Z,100941.22
2022-11-24T23:51:29.060Z,100933.16
2022-11-24T23:53:56.072Z,100944.50
2022-11-24T23:56:24.569Z,100949.19
2022-11-24T23:58:51.495Z,100944.78
